createdAt,value
2022-09-17T00:01:52.784Z,98910.72
2022-09-17T00:04:20.711Z,98907.19
2022-09-17T00:06:48.602Z,98904.59
2022-09-17T00:09:16.075Z,98906.25
2022-09-17T00:11:44.123Z,98915.41
2022-09-17T00:14:16.069Z,98907.91
2022-09-17T00:16:50.836Z,98903.91
2022-09-17T00:19:23.093Z,98909.03
2022-09-17T00:21:51.453Z,98912.56
2022-09-17T00:24:20.621Z,98905.13
2022-09-17T00:26:48.672Z,98896.81
2022-09-17T00:29:17.263Z,98901.34
2022-09-17T00:31:44.850Z,98897.28
2022-09-17T00:34:12.894Z,98889.53
2022-09-17T00:36:40.721Z,98890.69
2022-09-17T00:39:12.316Z,98881.97
2022-09-17T00:41:43.039Z,98877.34
2022-09-17T00:44:49.222Z,98865.47
2022-09-17T00:47:42.572Z,98867.13
2022-09-17T00:50:15.391Z,98865.25
2022-09-17T00:52:46.150Z,98860.28
2022-09-17T00:55:19.838Z,98861.22
2022-09-17T00:57:49.976Z,98857.91
2022-09-17T01:00:19.161Z,98851.78
2022-09-17T01:02:47.308Z,98849.34
2022-09-17T01:05:15.790Z,98850.59
2022-09-17T01:08:03.696Z,98838.56
2022-09-17T01:11:30.653Z,98845.19
2022-09-17T01:14:26.951Z,98855.34
2022-09-17T01:17:07.279Z,98855.09
2022-09-17T01:19:43.235Z,98844.38
2022-09-17T01:22:26.638Z,98843.50
2022-09-17T01:25:17.765Z,98858.84
2022-09-17T01:28:04.178Z,98868.34
2022-09-17T01:30:58.273Z,98868.31
2022-09-17T01:33:40.477Z,98871.88
2022-09-17T01:36:31.715Z,98869.38
2022-09-17T01:39:11.349Z,98884.69
2022-09-17T01:41:56.483Z,98897.50
2022-09-17T01:44:31.930Z,98895.84
2022-09-17T01:47:43.835Z,98895.50
2022-09-17T01:50:17.378Z,98891.72
2022-09-17T01:52:49.055Z,98896.63
2022-09-17T01:55:17.896Z,98895.56
2022-09-17T01:57:59.568Z,98888.56
2022-09-17T02:00:27.517Z,98895.78
2022-09-17T02:03:17.339Z,98884.84
2022-09-17T02:05:56.203Z,98885.56
2022-09-17T02:08:26.434Z,98887.03
2022-09-17T02:11:13.787Z,98880.87
2022-09-17T02:13:45.145Z,98878.38
2022-09-17T02:16:19.822Z,98866.97
2022-09-17T02:18:54.132Z,98877.19
2022-09-17T02:21:30.808Z,98869.69
2022-09-17T02:24:19.362Z,98873.53
2022-09-17T02:27:09.317Z,98876.72
2022-09-17T02:29:40.064Z,98871.94
2022-09-17T02:32:10.276Z,98870.69
2022-09-17T02:34:38.250Z,98874.38
2022-09-17T02:37:06.446Z,98862.44
2022-09-17T02:39:36.963Z,98870.19
2022-09-17T02:42:16.665Z,98854.84
2022-09-17T02:45:16.750Z,98855.63
2022-09-17T02:48:05.615Z,98848.34
2022-09-17T02:51:16.817Z,98850.41
2022-09-17T02:54:03.696Z,98845.94
2022-09-17T02:56:55.677Z,98838.59
2022-09-17T02:59:53.985Z,98834.09
2022-09-17T03:02:26.340Z,98826.06
2022-09-17T03:04:54.110Z,98822.22
2022-09-17T03:07:25.189Z,98827.75
2022-09-17T03:09:53.057Z,98818.25
2022-09-17T03:12:20.776Z,98814.09
2022-09-17T03:14:48.663Z,98810.41
2022-09-17T03:17:16.075Z,98797.44
2022-09-17T03:19:43.705Z,98798.03
2022-09-17T03:22:14.070Z,98779.03
2022-09-17T03:24:41.739Z,98768.91
2022-09-17T03:27:10.724Z,98759.59
2022-09-17T03:29:42.366Z,98753.59
2022-09-17T03:32:13.104Z,98757.69
2022-09-17T03:34:41.983Z,98747.16
2022-09-17T03:37:10.201Z,98733.16
2022-09-17T03:39:38.223Z,98724.62
2022-09-17T03:42:08.903Z,98737.09
2022-09-17T03:44:36.423Z,98735.34
2022-09-17T03:47:07.989Z,98736.88
2022-09-17T03:49:35.573Z,98733.97
2022-09-17T03:52:03.399Z,98738.31
2022-09-17T03:54:34.111Z,98749.88
2022-09-17T03:57:01.596Z,98753.41
2022-09-17T03:59:30.303Z,98748.56
2022-09-17T04:02:04.684Z,98743.87
2022-09-17T04:04:40.514Z,98752.50
2022-09-17T04:07:09.695Z,98764.44
2022-09-17T04:09:53.422Z,98770.88
2022-09-17T04:12:22.193Z,98769.72
2022-09-17T04:14:51.565Z,98758.56
2022-09-17T04:17:19.946Z,98752.59
2022-09-17T04:19:47.505Z,98748.12
2022-09-17T04:22:16.661Z,98749.78
2022-09-17T04:24:44.411Z,98748.41
2022-09-17T04:27:12.246Z,98735.47
2022-09-17T04:29:39.922Z,98739.66
2022-09-17T04:32:08.130Z,98738.31
2022-09-17T04:34:38.854Z,98739.88
2022-09-17T04:37:11.695Z,98735.91
2022-09-17T04:39:39.936Z,98734.66
2022-09-17T04:42:10.613Z,98726.34
2022-09-17T04:44:40.959Z,98723.91
2022-09-17T04:47:08.786Z,98716.38
2022-09-17T04:49:37.216Z,98718.88
2022-09-17T04:52:05.874Z,98724.75
2022-09-17T04:54:34.389Z,98728.34
2022-09-17T04:57:07.112Z,98722.63
2022-09-17T04:59:35.553Z,98731.09
2022-09-17T05:02:04.987Z,98718.06
2022-09-17T05:04:33.327Z,98717.66
2022-09-17T05:07:09.942Z,98714.22
2022-09-17T05:09:44.972Z,98724.81
2022-09-17T05:12:14.052Z,98726.03
2022-09-17T05:14:47.475Z,98724.62
2022-09-17T05:17:24.230Z,98734.81
2022-09-17T05:19:59.834Z,98739.66
2022-09-17T05:22:28.176Z,98749.00
2022-09-17T05:24:56.544Z,98749.75
2022-09-17T05:27:33.793Z,98764.03
2022-09-17T05:30:29.300Z,98764.63
2022-09-17T05:33:06.095Z,98764.41
2022-09-17T05:35:39.237Z,98773.47
2022-09-17T05:38:24.043Z,98779.75
2022-09-17T05:40:57.998Z,98776.88
2022-09-17T05:43:38.680Z,98772.19
2022-09-17T05:46:14.059Z,98770.47
2022-09-17T05:48:44.597Z,98790.03
2022-09-17T05:51:32.501Z,98793.41
2022-09-17T05:54:10.840Z,98790.19
2022-09-17T05:56:44.930Z,98796.50
2022-09-17T05:59:17.108Z,98800.56
2022-09-17T06:01:48.553Z,98808.00
2022-09-17T06:04:18.172Z,98812.16
2022-09-17T06:06:47.697Z,98803.41
2022-09-17T06:09:18.424Z,98819.66
2022-09-17T06:12:04.558Z,98823.28
2022-09-17T06:14:36.536Z,98809.81
2022-09-17T06:17:22.004Z,98792.06
2022-09-17T06:20:03.187Z,98796.87
2022-09-17T06:22:47.114Z,98807.81
2022-09-17T06:25:21.960Z,98812.56
2022-09-17T06:27:59.969Z,98814.50
2022-09-17T06:30:28.868Z,98818.88
2022-09-17T06:33:03.590Z,98814.72
2022-09-17T06:35:32.278Z,98806.72
2022-09-17T06:38:09.163Z,98807.22
2022-09-17T06:40:44.757Z,98823.00
2022-09-17T06:43:34.301Z,98821.25
2022-09-17T06:46:07.169Z,98824.00
2022-09-17T06:48:41.717Z,98827.16
2022-09-17T06:51:17.159Z,98831.62
2022-09-17T06:53:50.386Z,98835.69
2022-09-17T06:56:19.369Z,98837.97
2022-09-17T06:58:53.032Z,98824.44
2022-09-17T07:01:21.138Z,98834.72
2022-09-17T07:03:53.643Z,98831.66
2022-09-17T07:06:25.381Z,98830.47
2022-09-17T07:08:54.600Z,98826.28
2022-09-17T07:11:22.896Z,98840.34
2022-09-17T07:13:53.787Z,98842.44
2022-09-17T07:16:22.347Z,98832.22
2022-09-17T07:18:54.117Z,98828.28
2022-09-17T07:21:23.075Z,98808.16
2022-09-17T07:23:52.330Z,98806.06
2022-09-17T07:26:22.792Z,98811.84
2022-09-17T07:28:51.524Z,98820.94
2022-09-17T07:31:23.870Z,98820.88
2022-09-17T07:33:53.845Z,98820.69
2022-09-17T07:36:24.538Z,98825.94
2022-09-17T07:38:58.795Z,98826.06
2022-09-17T07:41:28.230Z,98827.47
2022-09-17T07:44:04.618Z,98833.06
2022-09-17T07:46:33.378Z,98836.38
2022-09-17T07:49:02.418Z,98853.00
2022-09-17T07:51:30.591Z,98841.31
2022-09-17T07:54:02.625Z,98841.47
2022-09-17T07:56:34.891Z,98834.94
2022-09-17T07:59:06.137Z,98838.53
2022-09-17T08:01:37.102Z,98837.75
2022-09-17T08:04:11.140Z,98835.66
2022-09-17T08:06:41.593Z,98850.06
2022-09-17T08:09:15.392Z,98864.00
2022-09-17T08:11:56.652Z,98870.00
2022-09-17T08:14:29.775Z,98880.34
2022-09-17T08:17:03.362Z,98879.31
2022-09-17T08:19:33.069Z,98877.97
2022-09-17T08:22:03.814Z,98872.69
2022-09-17T08:24:37.758Z,98872.06
2022-09-17T08:27:06.170Z,98888.50
2022-09-17T08:29:42.910Z,98883.19
2022-09-17T08:32:12.501Z,98891.84
2022-09-17T08:34:41.853Z,98897.28
2022-09-17T08:37:11.105Z,98889.94
2022-09-17T08:39:42.499Z,98888.72
2022-09-17T08:42:33.108Z,98887.00
2022-09-17T08:45:11.344Z,98870.94
2022-09-17T08:47:44.238Z,98861.25
2022-09-17T08:50:24.052Z,98855.22
2022-09-17T08:53:16.800Z,98846.03
2022-09-17T08:56:03.325Z,98853.06
2022-09-17T08:58:41.524Z,98862.34
2022-09-17T09:01:33.368Z,98861.06
2022-09-17T09:05:01.602Z,98864.94
2022-09-17T09:07:42.651Z,98876.06
2022-09-17T09:10:28.786Z,98875.59
2022-09-17T09:12:58.056Z,98878.53
2022-09-17T09:15:39.018Z,98880.81
2022-09-17T09:18:23.927Z,98869.38
2022-09-17T09:21:06.464Z,98870.50
2022-09-17T09:23:55.748Z,98867.06
2022-09-17T09:26:36.890Z,98872.44
2022-09-17T09:29:34.772Z,98865.41
2022-09-17T09:32:44.723Z,98862.91
2022-09-17T09:35:17.968Z,98868.19
2022-09-17T09:37:57.816Z,98872.34
2022-09-17T09:40:51.043Z,98873.44
2022-09-17T09:43:46.571Z,98881.47
2022-09-17T09:46:58.694Z,98883.53
2022-09-17T09:49:32.875Z,98873.25
2022-09-17T09:52:35.962Z,98874.06
2022-09-17T09:55:26.863Z,98873.28
2022-09-17T09:58:17.549Z,98883.03
2022-09-17T10:04:08.811Z,98902.75
2022-09-17T10:06:41.049Z,98884.03
2022-09-17T10:09:21.344Z,98861.59
2022-09-17T10:12:23.492Z,98863.00
2022-09-17T10:15:36.544Z,98862.34
2022-09-17T10:18:18.711Z,98865.87
2022-09-17T10:21:14.612Z,98857.19
2022-09-17T10:23:53.287Z,98845.19
2022-09-17T10:26:35.003Z,98836.72
2022-09-17T10:29:17.195Z,98820.75
2022-09-17T10:31:54.711Z,98817.88
2022-09-17T10:34:57.583Z,98822.25
2022-09-17T10:37:46.645Z,98843.94
2022-09-17T10:40:21.379Z,98848.44
2022-09-17T10:43:08.562Z,98849.03
2022-09-17T10:45:45.075Z,98833.34
2022-09-17T10:48:21.696Z,98827.63
2022-09-17T10:50:57.834Z,98816.66
2022-09-17T10:53:28.320Z,98794.34
2022-09-17T10:56:25.674Z,98790.22
2022-09-17T10:59:39.225Z,98762.09
2022-09-17T11:02:16.349Z,98768.53
2022-09-17T11:05:08.594Z,98789.37
2022-09-17T11:08:14.571Z,98801.16
2022-09-17T11:10:54.545Z,98819.16
2022-09-17T11:13:55.345Z,98824.94
2022-09-17T11:16:46.619Z,98813.38
2022-09-17T11:19:30.757Z,98795.97
2022-09-17T11:22:23.651Z,98818.28
2022-09-17T11:25:19.974Z,98846.78
2022-09-17T11:27:56.586Z,98841.47
2022-09-17T11:30:43.348Z,98846.38
2022-09-17T11:33:19.524Z,98825.31
2022-09-17T11:35:51.368Z,98813.97
2022-09-17T11:38:50.111Z,98809.66
2022-09-17T11:41:31.158Z,98813.59
2022-09-17T11:44:29.533Z,98808.44
2022-09-17T11:47:26.742Z,98803.03
2022-09-17T11:50:02.484Z,98791.88
2022-09-17T11:52:45.018Z,98775.31
2022-09-17T11:55:24.717Z,98755.72
2022-09-17T11:57:59.983Z,98748.03
2022-09-17T12:00:41.971Z,98735.25
2022-09-17T12:03:23.693Z,98724.09
2022-09-17T12:05:57.771Z,98718.75
2022-09-17T12:08:31.091Z,98716.25
2022-09-17T12:11:26.337Z,98719.78
2022-09-17T12:14:05.764Z,98718.53
2022-09-17T12:16:43.577Z,98714.59
2022-09-17T12:19:24.525Z,98702.22
2022-09-17T12:22:00.185Z,98700.75
2022-09-17T12:24:30.292Z,98686.09
2022-09-17T12:27:04.597Z,98685.28
2022-09-17T12:29:53.104Z,98688.16
2022-09-17T12:32:35.052Z,98679.09
2022-09-17T12:35:21.935Z,98678.44
2022-09-17T12:37:56.324Z,98682.81
2022-09-17T12:40:40.473Z,98676.38
2022-09-17T12:43:17.992Z,98659.63
2022-09-17T12:46:08.662Z,98654.06
2022-09-17T12:48:45.935Z,98663.28
2022-09-17T12:51:44.810Z,98683.63
2022-09-17T12:54:23.178Z,98687.75
2022-09-17T12:57:00.092Z,98686.47
2022-09-17T12:59:31.636Z,98694.78
2022-09-17T13:02:04.700Z,98701.81
2022-09-17T13:05:01.295Z,98702.81
2022-09-17T13:08:15.627Z,98697.66
2022-09-17T13:10:47.256Z,98687.94
2022-09-17T13:13:34.253Z,98683.19
2022-09-17T13:16:30.814Z,98663.34
2022-09-17T13:19:16.624Z,98649.75
2022-09-17T13:22:22.778Z,98657.19
2022-09-17T13:25:12.321Z,98659.87
2022-09-17T13:27:41.550Z,98637.97
2022-09-17T13:30:12.321Z,98637.16
2022-09-17T13:32:40.475Z,98647.28
2022-09-17T13:35:30.822Z,98633.66
2022-09-17T13:38:00.479Z,98630.16
2022-09-17T13:40:36.754Z,98628.31
2022-09-17T13:43:13.097Z,98618.19
2022-09-17T13:46:01.253Z,98631.03
2022-09-17T13:48:31.894Z,98638.88
2022-09-17T13:51:35.768Z,98634.47
2022-09-17T13:54:06.040Z,98634.47
2022-09-17T13:56:55.498Z,98627.97
2022-09-17T13:59:39.845Z,98639.94
2022-09-17T14:02:15.161Z,98651.72
2022-09-17T14:04:43.326Z,98646.59
2022-09-17T14:07:24.493Z,98665.03
2022-09-17T14:10:16.939Z,98662.09
2022-09-17T14:12:58.036Z,98664.88
2022-09-17T14:15:42.141Z,98675.56
2022-09-17T14:18:28.799Z,98665.84
2022-09-17T14:21:33.553Z,98673.16
2022-09-17T14:24:05.018Z,98670.94
2022-09-17T14:26:45.104Z,98672.53
2022-09-17T14:29:22.816Z,98675.44
2022-09-17T14:31:57.377Z,98682.56
2022-09-17T14:34:26.362Z,98689.63
2022-09-17T14:36:55.805Z,98685.00
2022-09-17T14:39:38.006Z,98690.22
2022-09-17T14:42:16.167Z,98693.88
2022-09-17T14:45:04.177Z,98686.84
2022-09-17T14:47:35.456Z,98684.19
2022-09-17T14:50:24.946Z,98681.28
2022-09-17T14:52:54.937Z,98674.31
2022-09-17T14:55:30.266Z,98677.00
2022-09-17T14:58:04.855Z,98666.25
2022-09-17T15:03:38.101Z,98667.91
2022-09-17T15:06:21.913Z,98672.84
2022-09-17T15:09:01.401Z,98675.19
2022-09-17T15:11:42.178Z,98669.91
2022-09-17T15:14:27.918Z,98679.28
2022-09-17T15:17:02.379Z,98686.09
2022-09-17T15:19:40.390Z,98677.84
2022-09-17T15:22:21.455Z,98679.22
2022-09-17T15:25:00.644Z,98667.91
2022-09-17T15:27:42.028Z,98658.22
2022-09-17T15:30:15.226Z,98641.09
2022-09-17T15:33:16.199Z,98634.72
2022-09-17T15:36:19.053Z,98631.09
2022-09-17T15:38:52.274Z,98640.75
2022-09-17T15:41:34.354Z,98645.37
2022-09-17T15:44:32.124Z,98637.50
2022-09-17T15:47:48.273Z,98633.84
2022-09-17T15:50:20.681Z,98625.41
2022-09-17T15:53:19.420Z,98616.94
2022-09-17T15:56:03.445Z,98625.94
2022-09-17T15:58:55.300Z,98639.22
2022-09-17T16:01:29.935Z,98637.16
2022-09-17T16:04:28.384Z,98632.59
2022-09-17T16:07:13.737Z,98619.22
2022-09-17T16:09:57.980Z,98619.03
2022-09-17T16:12:34.692Z,98617.53
2022-09-17T16:15:14.096Z,98618.69
2022-09-17T16:17:48.993Z,98616.88
2022-09-17T16:20:24.752Z,98610.81
2022-09-17T16:22:55.145Z,98603.03
2022-09-17T16:25:27.390Z,98602.09
2022-09-17T16:28:03.371Z,98597.38
2022-09-17T16:30:32.352Z,98598.03
2022-09-17T16:33:17.026Z,98590.00
2022-09-17T16:35:53.585Z,98589.78
2022-09-17T16:38:24.604Z,98590.78
2022-09-17T16:40:56.011Z,98586.75
2022-09-17T16:43:28.432Z,98586.31
2022-09-17T16:49:47.313Z,98600.78
2022-09-17T16:52:20.171Z,98610.44
2022-09-17T16:54:48.587Z,98598.13
2022-09-17T16:57:26.652Z,98598.13
2022-09-17T17:00:21.102Z,98597.63
2022-09-17T17:03:03.876Z,98597.19
2022-09-17T17:05:39.343Z,98620.81
2022-09-17T17:08:10.595Z,98629.44
2022-09-17T17:10:40.958Z,98626.50
2022-09-17T17:13:13.893Z,98612.19
2022-09-17T17:15:46.124Z,98607.84
2022-09-17T17:18:25.508Z,98601.16
2022-09-17T17:20:58.794Z,98593.63
2022-09-17T17:23:27.630Z,98570.94
2022-09-17T17:25:55.518Z,98588.25
2022-09-17T17:28:23.008Z,98601.28
2022-09-17T17:30:50.926Z,98601.66
2022-09-17T17:33:21.125Z,98595.66
2022-09-17T17:35:49.104Z,98605.75
2022-09-17T17:38:20.853Z,98606.31
2022-09-17T17:40:49.339Z,98601.41
2022-09-17T17:43:17.405Z,98606.84
2022-09-17T17:45:45.579Z,98607.22
2022-09-17T17:48:14.010Z,98605.38
2022-09-17T17:50:42.396Z,98616.09
2022-09-17T17:53:10.390Z,98633.25
2022-09-17T17:55:38.494Z,98639.03
2022-09-17T17:58:07.342Z,98647.69
2022-09-17T18:00:37.701Z,98645.69
2022-09-17T18:03:13.986Z,98648.06
2022-09-17T18:05:47.306Z,98659.44
2022-09-17T18:08:34.408Z,98665.75
2022-09-17T18:11:05.125Z,98667.47
2022-09-17T18:13:41.616Z,98671.19
2022-09-17T18:16:15.569Z,98669.75
2022-09-17T18:18:52.944Z,98666.16
2022-09-17T18:21:26.351Z,98656.25
2022-09-17T18:24:04.473Z,98662.03
2022-09-17T18:26:42.770Z,98660.84
2022-09-17T18:29:22.808Z,98657.03
2022-09-17T18:31:54.573Z,98664.19
2022-09-17T18:34:29.139Z,98667.50
2022-09-17T18:37:05.908Z,98664.47
2022-09-17T18:42:42.676Z,98669.97
2022-09-17T18:45:38.991Z,98656.28
2022-09-17T18:48:15.229Z,98664.56
2022-09-17T18:51:02.968Z,98660.97
2022-09-17T18:53:38.397Z,98660.66
2022-09-17T18:56:25.843Z,98655.19
2022-09-17T18:58:57.384Z,98650.09
2022-09-17T19:01:42.641Z,98645.47
2022-09-17T19:04:47.711Z,98646.56
2022-09-17T19:07:53.940Z,98636.34
2022-09-17T19:13:42.420Z,98649.59
2022-09-17T19:16:37.530Z,98655.38
2022-09-17T19:19:40.949Z,98663.53
2022-09-17T19:22:35.156Z,98683.37
2022-09-17T19:25:31.241Z,98694.16
2022-09-17T19:28:03.134Z,98688.56
2022-09-17T19:30:51.915Z,98693.19
2022-09-17T19:33:44.824Z,98682.59
2022-09-17T19:36:20.328Z,98694.44
2022-09-17T19:38:55.934Z,98697.22
2022-09-17T19:41:38.418Z,98686.34
2022-09-17T19:44:15.048Z,98688.94
2022-09-17T19:47:23.646Z,98688.28
2022-09-17T19:50:07.269Z,98695.19
2022-09-17T19:52:41.341Z,98697.41
2022-09-17T19:55:19.149Z,98698.75
2022-09-17T19:57:52.126Z,98691.44
2022-09-17T20:00:21.614Z,98696.09
2022-09-17T20:02:51.422Z,98692.22
2022-09-17T20:05:28.228Z,98690.06
2022-09-17T20:07:56.941Z,98696.31
2022-09-17T20:10:27.894Z,98696.56
2022-09-17T20:12:59.469Z,98697.53
2022-09-17T20:15:29.824Z,98693.56
2022-09-17T20:18:02.045Z,98689.94
2022-09-17T20:20:39.068Z,98696.69
2022-09-17T20:23:11.939Z,98691.44
2022-09-17T20:25:45.021Z,98698.16
2022-09-17T20:28:26.110Z,98700.00
2022-09-17T20:31:09.462Z,98696.31
2022-09-17T20:33:38.109Z,98706.00
2022-09-17T20:36:17.353Z,98705.63
2022-09-17T20:41:43.360Z,98713.00
2022-09-17T20:44:11.881Z,98712.84
2022-09-17T20:46:43.081Z,98719.66
2022-09-17T20:49:15.261Z,98725.75
2022-09-17T20:51:43.184Z,98719.91
2022-09-17T20:54:14.752Z,98718.69
2022-09-17T20:56:49.837Z,98725.97
2022-09-17T20:59:28.422Z,98722.56
2022-09-17T21:01:56.503Z,98728.94
2022-09-17T21:04:27.506Z,98717.09
2022-09-17T21:06:56.630Z,98719.03
2022-09-17T21:09:24.738Z,98717.78
2022-09-17T21:11:57.541Z,98725.12
2022-09-17T21:14:32.919Z,98723.28
2022-09-17T21:17:11.559Z,98726.84
2022-09-17T21:19:44.987Z,98713.63
2022-09-17T21:22:14.108Z,98719.31
2022-09-17T21:24:44.634Z,98726.28
2022-09-17T21:27:21.502Z,98730.47
2022-09-17T21:30:00.098Z,98740.09
2022-09-17T21:32:37.262Z,98734.44
2022-09-17T21:35:11.702Z,98732.22
2022-09-17T21:37:39.954Z,98729.91
2022-09-17T21:40:15.452Z,98731.28
2022-09-17T21:42:50.115Z,98744.88
2022-09-17T21:45:18.908Z,98742.87
2022-09-17T21:47:52.509Z,98740.31
2022-09-17T21:50:23.533Z,98743.31
2022-09-17T21:53:00.338Z,98744.97
2022-09-17T21:55:31.792Z,98753.81
2022-09-17T21:58:02.364Z,98756.09
2022-09-17T22:00:31.503Z,98765.03
2022-09-17T22:03:05.797Z,98772.13
2022-09-17T22:05:38.236Z,98769.84
2022-09-17T22:08:12.090Z,98765.84
2022-09-17T22:10:42.349Z,98767.56
2022-09-17T22:13:15.868Z,98765.00
2022-09-17T22:15:43.769Z,98771.94
2022-09-17T22:18:15.246Z,98773.72
2022-09-17T22:20:46.001Z,98770.69
2022-09-17T22:23:14.334Z,98777.03
2022-09-17T22:25:47.665Z,98771.03
2022-09-17T22:28:21.549Z,98777.38
2022-09-17T22:30:51.747Z,98773.37
2022-09-17T22:33:19.614Z,98771.00
2022-09-17T22:35:47.213Z,98776.84
2022-09-17T22:38:22.032Z,98787.28
2022-09-17T22:40:50.137Z,98785.12
2022-09-17T22:43:17.633Z,98792.47
2022-09-17T22:45:45.106Z,98795.97
2022-09-17T22:48:18.720Z,98800.16
2022-09-17T22:50:51.299Z,98808.12
2022-09-17T22:53:22.469Z,98803.06
2022-09-17T22:55:58.741Z,98802.94
2022-09-17T22:58:27.115Z,98800.75
2022-09-17T23:00:58.331Z,98804.31
2022-09-17T23:03:30.072Z,98803.09
2022-09-17T23:06:05.756Z,98809.78
2022-09-17T23:08:35.731Z,98801.91
2022-09-17T23:11:09.009Z,98804.81
2022-09-17T23:13:37.136Z,98802.47
2022-09-17T23:16:09.132Z,98802.50
2022-09-17T23:18:42.363Z,98798.22
2022-09-17T23:21:17.172Z,98808.75
2022-09-17T23:23:50.296Z,98797.78
2022-09-17T23:26:27.205Z,98804.44
2022-09-17T23:29:05.567Z,98806.84
2022-09-17T23:31:37.403Z,98812.06
2022-09-17T23:34:06.906Z,98806.31
2022-09-17T23:36:39.736Z,98808.34
2022-09-17T23:39:09.463Z,98812.19
2022-09-17T23:41:40.935Z,98805.56
2022-09-17T23:44:16.251Z,98809.63
2022-09-17T23:46:46.308Z,98814.13
2022-09-17T23:49:18.497Z,98791.09
2022-09-17T23:51:46.264Z,98801.28
2022-09-17T23:54:19.755Z,98807.75
2022-09-17T23:56:49.495Z,98810.25
2022-09-17T23:59:17.512Z,98805.63
